sensor_id;sensor_type;location;lat;lon;timestamp;pressure;altitude;pressure_sealevel;temperature;humidity
8523;BME280;4299;42.202;24.736;2023-02-18T00:01:32;100355.34;;;7.80;52.29
8523;BME280;4299;42.202;24.736;2023-02-18T00:04:00;100352.59;;;7.83;52.24
8523;BME280;4299;42.202;24.736;2023-02-18T00:06:29;100349.97;;;7.83;52.56
8523;BME280;4299;42.202;24.736;2023-02-18T00:08:58;100342.03;;;7.83;52.66
8523;BME280;4299;42.202;24.736;2023-02-18T00:11:27;100342.22;;;7.77;52.51
8523;BME280;4299;42.202;24.736;2023-02-18T00:13:56;100337.06;;;7.74;52.38
8523;BME280;4299;42.202;24.736;2023-02-18T00:16:23;100335.41;;;7.70;52.67
8523;BME280;4299;42.202;24.736;2023-02-18T00:18:54;100330.34;;;7.64;52.48
8523;BME280;4299;42.202;24.736;2023-02-18T00:21:21;100337.44;;;7.62;52.43
8523;BME280;4299;42.202;24.736;2023-02-18T00:23:48;100333.88;;;7.63;52.85
8523;BME280;4299;42.202;24.736;2023-02-18T00:26:17;100332.81;;;7.68;52.90
8523;BME280;4299;42.202;24.736;2023-02-18T00:28:44;100335.63;;;7.64;53.08
8523;BME280;4299;42.202;24.736;2023-02-18T00:31:14;100333.81;;;7.66;52.51
8523;BME280;4299;42.202;24.736;2023-02-18T00:33:41;100333.88;;;7.63;52.78
8523;BME280;4299;42.202;24.736;2023-02-18T00:36:10;100328.53;;;7.66;53.08
8523;BME280;4299;42.202;24.736;2023-02-18T00:38:37;100322.38;;;7.65;52.68
8523;BME280;4299;42.202;24.736;2023-02-18T00:41:05;100314.59;;;7.61;53.32
8523;BME280;4299;42.202;24.736;2023-02-18T00:43:33;100309.22;;;7.64;53.17
8523;BME280;4299;42.202;24.736;2023-02-18T00:46:00;100311.03;;;7.62;53.30
8523;BME280;4299;42.202;24.736;2023-02-18T00:48:26;100307.56;;;7.60;53.31
8523;BME280;4299;42.202;24.736;2023-02-18T00:50:53;100305.00;;;7.58;52.85
8523;BME280;4299;42.202;24.736;2023-02-18T00:53:20;100297.88;;;7.60;52.60
8523;BME280;4299;42.202;24.736;2023-02-18T00:55:47;100289.03;;;7.63;52.65
8523;BME280;4299;42.202;24.736;2023-02-18T00:58:14;100282.84;;;7.64;52.17
8523;BME280;4299;42.202;24.736;2023-02-18T01:00:42;100272.28;;;7.64;52.04
8523;BME280;4299;42.202;24.736;2023-02-18T01:03:09;100275.91;;;7.60;51.81
8523;BME280;4299;42.202;24.736;2023-02-18T01:05:37;100267.09;;;7.61;51.66
8523;BME280;4299;42.202;24.736;2023-02-18T01:08:04;100256.53;;;7.61;51.54
8523;BME280;4299;42.202;24.736;2023-02-18T01:10:32;100253.09;;;7.59;51.47
8523;BME280;4299;42.202;24.736;2023-02-18T01:13:00;100244.25;;;7.60;51.09
8523;BME280;4299;42.202;24.736;2023-02-18T01:15:29;100240.81;;;7.58;51.29
8523;BME280;4299;42.202;24.736;2023-02-18T01:17:57;100246.06;;;7.59;50.81
8523;BME280;4299;42.202;24.736;2023-02-18T01:20:24;100233.63;;;7.63;50.75
8523;BME280;4299;42.202;24.736;2023-02-18T01:22:51;100240.41;;;7.70;50.43
8523;BME280;4299;42.202;24.736;2023-02-18T01:25:18;100233.19;;;7.75;50.23
8523;BME280;4299;42.202;24.736;2023-02-18T01:27:46;100237.31;;;7.83;49.80
8523;BME280;4299;42.202;24.736;2023-02-18T01:30:14;100235.47;;;7.87;49.50
8523;BME280;4299;42.202;24.736;2023-02-18T01:32:41;100238.09;;;7.87;49.69
8523;BME280;4299;42.202;24.736;2023-02-18T01:35:12;100226.63;;;7.88;49.27
8523;BME280;4299;42.202;24.736;2023-02-18T01:37:39;100224.00;;;7.88;49.02
8523;BME280;4299;42.202;24.736;2023-02-18T01:40:07;100225.00;;;7.84;49.18
8523;BME280;4299;42.202;24.736;2023-02-18T01:42:34;100224.16;;;7.82;49.24
8523;BME280;4299;42.202;24.736;2023-02-18T01:48:09;100221.03;;;7.71;50.00
8523;BME280;4299;42.202;24.736;2023-02-18T01:50:41;100221.94;;;7.70;49.45
8523;BME280;4299;42.202;24.736;2023-02-18T01:53:09;100228.34;;;7.63;50.39
8523;BME280;4299;42.202;24.736;2023-02-18T01:55:37;100226.88;;;7.53;50.77
8523;BME280;4299;42.202;24.736;2023-02-18T01:58:04;100230.75;;;7.42;50.85
8523;BME280;4299;42.202;24.736;2023-02-18T02:00:31;100222.41;;;7.28;51.67
8523;BME280;4299;42.202;24.736;2023-02-18T02:02:58;100222.25;;;7.05;52.20
8523;BME280;4299;42.202;24.736;2023-02-18T02:05:30;100228.09;;;6.85;53.42
8523;BME280;4299;42.202;24.736;2023-02-18T02:08:00;100221.50;;;6.71;54.17
8523;BME280;4299;42.202;24.736;2023-02-18T02:10:35;100231.81;;;6.47;55.84
8523;BME280;4299;42.202;24.736;2023-02-18T02:13:08;100236.91;;;6.21;57.27
8523;BME280;4299;42.202;24.736;2023-02-18T02:15:44;100239.97;;;6.06;59.12
8523;BME280;4299;42.202;24.736;2023-02-18T02:18:21;100241.94;;;5.98;59.37
8523;BME280;4299;42.202;24.736;2023-02-18T02:21:25;100239.31;;;5.96;60.52
8523;BME280;4299;42.202;24.736;2023-02-18T02:24:21;100234.78;;;6.03;60.12
8523;BME280;4299;42.202;24.736;2023-02-18T02:27:13;100232.31;;;6.29;58.17
8523;BME280;4299;42.202;24.736;2023-02-18T02:33:17;100232.44;;;6.57;56.45
8523;BME280;4299;42.202;24.736;2023-02-18T02:35:52;100237.91;;;6.49;56.24
8523;BME280;4299;42.202;24.736;2023-02-18T02:38:28;100237.91;;;6.49;56.31
8523;BME280;4299;42.202;24.736;2023-02-18T02:41:06;100242.69;;;6.35;57.37
8523;BME280;4299;42.202;24.736;2023-02-18T02:43:45;100243.97;;;6.20;58.46
8523;BME280;4299;42.202;24.736;2023-02-18T02:46:18;100245.22;;;6.06;58.91
8523;BME280;4299;42.202;24.736;2023-02-18T02:48:50;100248.81;;;6.02;59.38
8523;BME280;4299;42.202;24.736;2023-02-18T02:51:26;100245.53;;;5.94;60.08
8523;BME280;4299;42.202;24.736;2023-02-18T02:53:53;100251.69;;;5.93;60.38
8523;BME280;4299;42.202;24.736;2023-02-18T02:56:23;100245.13;;;6.09;59.12
8523;BME280;4299;42.202;24.736;2023-02-18T02:58:57;100251.88;;;6.20;58.74
8523;BME280;4299;42.202;24.736;2023-02-18T03:01:34;100245.56;;;6.26;58.25
8523;BME280;4299;42.202;24.736;2023-02-18T03:04:24;100255.19;;;6.27;58.10
8523;BME280;4299;42.202;24.736;2023-02-18T03:07:24;100236.78;;;6.27;57.63
8523;BME280;4299;42.202;24.736;2023-02-18T03:10:10;100243.66;;;6.31;57.40
8523;BME280;4299;42.202;24.736;2023-02-18T03:12:48;100232.06;;;6.38;56.79
8523;BME280;4299;42.202;24.736;2023-02-18T03:15:22;100219.63;;;6.43;56.01
8523;BME280;4299;42.202;24.736;2023-02-18T03:17:56;100224.81;;;6.46;56.15
8523;BME280;4299;42.202;24.736;2023-02-18T03:20:27;100223.91;;;6.47;55.36
8523;BME280;4299;42.202;24.736;2023-02-18T03:22:59;100233.56;;;6.48;55.55
8523;BME280;4299;42.202;24.736;2023-02-18T03:25:30;100225.00;;;6.40;55.02
8523;BME280;4299;42.202;24.736;2023-02-18T03:28:00;100238.25;;;6.36;55.04
8523;BME280;4299;42.202;24.736;2023-02-18T03:30:32;100226.28;;;6.25;55.91
8523;BME280;4299;42.202;24.736;2023-02-18T03:33:03;100215.63;;;6.29;56.82
8523;BME280;4299;42.202;24.736;2023-02-18T03:35:31;100215.38;;;6.39;56.83
8523;BME280;4299;42.202;24.736;2023-02-18T03:38:04;100211.41;;;6.55;56.13
8523;BME280;4299;42.202;24.736;2023-02-18T03:40:33;100213.94;;;6.58;56.03
8523;BME280;4299;42.202;24.736;2023-02-18T03:43:00;100217.41;;;6.60;55.89
8523;BME280;4299;42.202;24.736;2023-02-18T03:45:27;100227.00;;;6.63;55.78
8523;BME280;4299;42.202;24.736;2023-02-18T03:47:54;100229.66;;;6.61;55.61
8523;BME280;4299;42.202;24.736;2023-02-18T03:50:21;100235.13;;;6.55;56.19
8523;BME280;4299;42.202;24.736;2023-02-18T03:52:47;100243.50;;;6.37;57.14
8523;BME280;4299;42.202;24.736;2023-02-18T03:55:16;100253.75;;;6.14;58.07
8523;BME280;4299;42.202;24.736;2023-02-18T03:57:43;100246.50;;;5.90;59.70
8523;BME280;4299;42.202;24.736;2023-02-18T04:00:10;100247.88;;;5.69;61.23
8523;BME280;4299;42.202;24.736;2023-02-18T04:02:37;100251.78;;;5.51;62.98
8523;BME280;4299;42.202;24.736;2023-02-18T04:05:04;100250.22;;;5.44;63.77
8523;BME280;4299;42.202;24.736;2023-02-18T04:07:31;100254.63;;;5.42;63.57
8523;BME280;4299;42.202;24.736;2023-02-18T04:09:58;100251.72;;;5.54;62.38
8523;BME280;4299;42.202;24.736;2023-02-18T04:12:26;100250.59;;;5.64;62.39
8523;BME280;4299;42.202;24.736;2023-02-18T04:14:52;100268.19;;;5.62;61.78
8523;BME280;4299;42.202;24.736;2023-02-18T04:17:19;100260.56;;;5.50;62.88
8523;BME280;4299;42.202;24.736;2023-02-18T04:19:46;100259.94;;;5.40;64.37
8523;BME280;4299;42.202;24.736;2023-02-18T04:22:13;100259.19;;;5.34;65.27
8523;BME280;4299;42.202;24.736;2023-02-18T04:24:39;100254.22;;;5.22;66.25
8523;BME280;4299;42.202;24.736;2023-02-18T04:27:06;100256.00;;;5.20;67.68
8523;BME280;4299;42.202;24.736;2023-02-18T04:29:34;100261.25;;;5.20;68.32
8523;BME280;4299;42.202;24.736;2023-02-18T04:32:01;100254.34;;;5.16;69.25
8523;BME280;4299;42.202;24.736;2023-02-18T04:34:28;100255.22;;;5.16;69.82
8523;BME280;4299;42.202;24.736;2023-02-18T04:36:54;100262.94;;;5.24;68.97
8523;BME280;4299;42.202;24.736;2023-02-18T04:39:21;100266.22;;;5.33;68.54
8523;BME280;4299;42.202;24.736;2023-02-18T04:41:48;100263.28;;;5.47;67.75
8523;BME280;4299;42.202;24.736;2023-02-18T04:44:15;100245.44;;;5.61;65.77
8523;BME280;4299;42.202;24.736;2023-02-18T04:46:43;100247.41;;;5.89;63.87
8523;BME280;4299;42.202;24.736;2023-02-18T04:49:09;100250.34;;;6.12;61.83
8523;BME280;4299;42.202;24.736;2023-02-18T04:51:36;100248.03;;;6.32;59.85
8523;BME280;4299;42.202;24.736;2023-02-18T04:54:03;100251.09;;;6.49;58.26
8523;BME280;4299;42.202;24.736;2023-02-18T04:56:30;100247.09;;;6.65;56.82
8523;BME280;4299;42.202;24.736;2023-02-18T04:58:56;100243.22;;;6.79;56.09
8523;BME280;4299;42.202;24.736;2023-02-18T05:01:23;100244.69;;;6.89;55.09
8523;BME280;4299;42.202;24.736;2023-02-18T05:03:51;100249.28;;;7.12;54.47
8523;BME280;4299;42.202;24.736;2023-02-18T05:06:18;100249.72;;;7.26;53.30
8523;BME280;4299;42.202;24.736;2023-02-18T05:08:44;100246.56;;;7.42;52.82
8523;BME280;4299;42.202;24.736;2023-02-18T05:11:11;100248.81;;;7.55;52.07
8523;BME280;4299;42.202;24.736;2023-02-18T05:13:38;100252.78;;;7.68;51.19
8523;BME280;4299;42.202;24.736;2023-02-18T05:16:04;100257.03;;;7.73;50.62
8523;BME280;4299;42.202;24.736;2023-02-18T05:18:31;100254.41;;;7.73;50.56
8523;BME280;4299;42.202;24.736;2023-02-18T05:20:59;100247.63;;;7.65;50.74
8523;BME280;4299;42.202;24.736;2023-02-18T05:23:26;100254.00;;;7.58;51.00
8523;BME280;4299;42.202;24.736;2023-02-18T05:25:53;100251.56;;;7.52;51.22
8523;BME280;4299;42.202;24.736;2023-02-18T05:28:20;100250.03;;;7.45;51.79
8523;BME280;4299;42.202;24.736;2023-02-18T05:30:47;100241.56;;;7.33;51.96
8523;BME280;4299;42.202;24.736;2023-02-18T05:33:13;100247.69;;;7.35;51.39
8523;BME280;4299;42.202;24.736;2023-02-18T05:35:40;100248.66;;;7.31;52.28
8523;BME280;4299;42.202;24.736;2023-02-18T05:38:08;100247.75;;;7.32;51.92
8523;BME280;4299;42.202;24.736;2023-02-18T05:40:35;100248.59;;;7.34;52.52
8523;BME280;4299;42.202;24.736;2023-02-18T05:43:02;100250.41;;;7.32;52.34
8523;BME280;4299;42.202;24.736;2023-02-18T05:45:29;100254.50;;;7.42;52.19
8523;BME280;4299;42.202;24.736;2023-02-18T05:47:54;100251.66;;;7.49;52.11
8523;BME280;4299;42.202;24.736;2023-02-18T05:50:21;100240.91;;;7.55;51.83
8523;BME280;4299;42.202;24.736;2023-02-18T05:52:48;100245.13;;;7.60;52.09
8523;BME280;4299;42.202;24.736;2023-02-18T05:55:16;100244.84;;;7.69;52.17
8523;BME280;4299;42.202;24.736;2023-02-18T05:57:43;100235.66;;;7.81;51.15
8523;BME280;4299;42.202;24.736;2023-02-18T06:00:11;100246.50;;;7.98;50.34
8523;BME280;4299;42.202;24.736;2023-02-18T06:02:38;100254.94;;;8.09;50.42
8523;BME280;4299;42.202;24.736;2023-02-18T06:05:05;100249.34;;;8.18;50.48
8523;BME280;4299;42.202;24.736;2023-02-18T06:07:32;100247.41;;;8.24;50.40
8523;BME280;4299;42.202;24.736;2023-02-18T06:09:59;100246.34;;;8.29;49.89
8523;BME280;4299;42.202;24.736;2023-02-18T06:12:27;100263.97;;;8.29;50.11
8523;BME280;4299;42.202;24.736;2023-02-18T06:14:54;100264.59;;;8.37;49.46
8523;BME280;4299;42.202;24.736;2023-02-18T06:17:21;100256.63;;;8.38;49.49
8523;BME280;4299;42.202;24.736;2023-02-18T06:19:48;100257.31;;;8.43;50.06
8523;BME280;4299;42.202;24.736;2023-02-18T06:22:15;100257.88;;;8.53;49.23
8523;BME280;4299;42.202;24.736;2023-02-18T06:24:41;100264.53;;;8.63;49.65
8523;BME280;4299;42.202;24.736;2023-02-18T06:27:08;100269.03;;;8.61;49.84
8523;BME280;4299;42.202;24.736;2023-02-18T06:29:36;100268.25;;;8.57;50.40
8523;BME280;4299;42.202;24.736;2023-02-18T06:32:03;100258.88;;;8.49;51.15
8523;BME280;4299;42.202;24.736;2023-02-18T06:34:30;100262.97;;;8.57;50.30
8523;BME280;4299;42.202;24.736;2023-02-18T06:36:56;100262.97;;;8.82;49.23
8523;BME280;4299;42.202;24.736;2023-02-18T06:39:23;100259.34;;;9.08;48.61
8523;BME280;4299;42.202;24.736;2023-02-18T06:41:50;100248.69;;;9.33;47.63
8523;BME280;4299;42.202;24.736;2023-02-18T06:44:16;100233.44;;;9.61;46.93
8523;BME280;4299;42.202;24.736;2023-02-18T06:46:44;100233.94;;;9.93;46.57
8523;BME280;4299;42.202;24.736;2023-02-18T06:49:11;100228.72;;;10.11;46.56
8523;BME280;4299;42.202;24.736;2023-02-18T06:51:38;100227.88;;;10.31;45.55
8523;BME280;4299;42.202;24.736;2023-02-18T06:54:05;100222.31;;;10.58;45.24
8523;BME280;4299;42.202;24.736;2023-02-18T06:56:31;100214.19;;;10.81;44.75
8523;BME280;4299;42.202;24.736;2023-02-18T06:58:58;100211.63;;;10.98;43.87
8523;BME280;4299;42.202;24.736;2023-02-18T07:01:25;100222.66;;;11.26;43.03
8523;BME280;4299;42.202;24.736;2023-02-18T07:03:53;100216.31;;;11.48;42.46
8523;BME280;4299;42.202;24.736;2023-02-18T07:06:19;100226.94;;;11.66;42.84
8523;BME280;4299;42.202;24.736;2023-02-18T07:08:46;100219.19;;;11.81;42.79
8523;BME280;4299;42.202;24.736;2023-02-18T07:11:13;100206.63;;;12.01;41.49
8523;BME280;4299;42.202;24.736;2023-02-18T07:13:39;100212.72;;;12.21;41.81
8523;BME280;4299;42.202;24.736;2023-02-18T07:16:06;100217.25;;;12.36;41.54
8523;BME280;4299;42.202;24.736;2023-02-18T07:18:33;100218.78;;;12.57;40.10
8523;BME280;4299;42.202;24.736;2023-02-18T07:21:01;100220.81;;;12.69;40.27
8523;BME280;4299;42.202;24.736;2023-02-18T07:23:27;100223.13;;;12.75;39.45
8523;BME280;4299;42.202;24.736;2023-02-18T07:26:02;100213.75;;;12.85;39.17
8523;BME280;4299;42.202;24.736;2023-02-18T07:28:29;100205.06;;;12.98;39.75
8523;BME280;4299;42.202;24.736;2023-02-18T07:30:55;100199.63;;;13.16;38.66
8523;BME280;4299;42.202;24.736;2023-02-18T07:33:22;100197.91;;;13.31;38.40
8523;BME280;4299;42.202;24.736;2023-02-18T07:35:52;100195.31;;;13.45;38.63
8523;BME280;4299;42.202;24.736;2023-02-18T07:38:20;100188.47;;;13.57;37.90
8523;BME280;4299;42.202;24.736;2023-02-18T07:40:47;100195.50;;;13.58;37.14
8523;BME280;4299;42.202;24.736;2023-02-18T07:43:14;100196.38;;;13.58;37.09
8523;BME280;4299;42.202;24.736;2023-02-18T07:45:40;100192.94;;;13.56;37.33
8523;BME280;4299;42.202;24.736;2023-02-18T07:48:07;100204.19;;;13.61;37.05
8523;BME280;4299;42.202;24.736;2023-02-18T07:50:34;100209.28;;;13.50;36.81
8523;BME280;4299;42.202;24.736;2023-02-18T07:53:02;100200.66;;;13.45;37.11
8523;BME280;4299;42.202;24.736;2023-02-18T07:55:30;100190.00;;;13.45;37.78
8523;BME280;4299;42.202;24.736;2023-02-18T07:58:11;100182.63;;;13.50;37.61
8523;BME280;4299;42.202;24.736;2023-02-18T08:00:37;100179.84;;;13.68;37.59
8523;BME280;4299;42.202;24.736;2023-02-18T08:03:05;100182.56;;;13.82;37.17
8523;BME280;4299;42.202;24.736;2023-02-18T08:05:31;100179.00;;;13.97;37.35
8523;BME280;4299;42.202;24.736;2023-02-18T08:07:58;100180.22;;;14.21;37.67
8523;BME280;4299;42.202;24.736;2023-02-18T08:10:25;100183.50;;;14.40;36.59
8523;BME280;4299;42.202;24.736;2023-02-18T08:12:53;100181.56;;;14.28;36.75
8523;BME280;4299;42.202;24.736;2023-02-18T08:15:20;100174.13;;;14.33;37.13
8523;BME280;4299;42.202;24.736;2023-02-18T08:17:46;100176.44;;;14.39;37.07
8523;BME280;4299;42.202;24.736;2023-02-18T08:20:13;100165.84;;;14.54;37.02
8523;BME280;4299;42.202;24.736;2023-02-18T08:22:40;100177.72;;;14.62;37.33
8523;BME280;4299;42.202;24.736;2023-02-18T08:25:07;100166.41;;;14.73;37.35
8523;BME280;4299;42.202;24.736;2023-02-18T08:27:33;100170.81;;;15.15;37.58
8523;BME280;4299;42.202;24.736;2023-02-18T08:30:01;100169.75;;;15.32;36.82
8523;BME280;4299;42.202;24.736;2023-02-18T08:32:28;100158.59;;;15.66;36.84
8523;BME280;4299;42.202;24.736;2023-02-18T08:34:55;100156.25;;;16.14;36.70
8523;BME280;4299;42.202;24.736;2023-02-18T08:37:21;100159.19;;;16.36;35.92
8523;BME280;4299;42.202;24.736;2023-02-18T08:39:48;100165.06;;;16.54;34.69
8523;BME280;4299;42.202;24.736;2023-02-18T08:42:14;100175.97;;;16.38;32.98
8523;BME280;4299;42.202;24.736;2023-02-18T08:44:41;100171.38;;;16.27;33.19
8523;BME280;4299;42.202;24.736;2023-02-18T08:47:10;100168.78;;;16.13;33.95
8523;BME280;4299;42.202;24.736;2023-02-18T08:49:36;100163.88;;;16.20;33.12
8523;BME280;4299;42.202;24.736;2023-02-18T08:52:03;100164.31;;;16.39;33.75
8523;BME280;4299;42.202;24.736;2023-02-18T08:54:30;100156.16;;;16.41;33.24
8523;BME280;4299;42.202;24.736;2023-02-18T08:56:57;100162.16;;;16.44;32.59
8523;BME280;4299;42.202;24.736;2023-02-18T08:59:24;100150.38;;;16.59;33.15
8523;BME280;4299;42.202;24.736;2023-02-18T09:01:50;100146.84;;;16.97;32.71
8523;BME280;4299;42.202;24.736;2023-02-18T09:04:18;100148.03;;;16.93;31.34
8523;BME280;4299;42.202;24.736;2023-02-18T09:06:45;100152.97;;;16.73;31.75
8523;BME280;4299;42.202;24.736;2023-02-18T09:09:11;100157.91;;;16.67;32.00
8523;BME280;4299;42.202;24.736;2023-02-18T09:11:38;100146.34;;;16.66;31.93
8523;BME280;4299;42.202;24.736;2023-02-18T09:14:05;100145.81;;;16.61;32.00
8523;BME280;4299;42.202;24.736;2023-02-18T09:16:31;100149.56;;;16.71;32.33
8523;BME280;4299;42.202;24.736;2023-02-18T09:18:57;100144.81;;;16.88;32.51
8523;BME280;4299;42.202;24.736;2023-02-18T09:21:25;100137.47;;;17.15;32.18
8523;BME280;4299;42.202;24.736;2023-02-18T09:23:52;100130.38;;;17.50;32.03
8523;BME280;4299;42.202;24.736;2023-02-18T09:26:20;100125.84;;;17.64;31.36
8523;BME280;4299;42.202;24.736;2023-02-18T09:28:47;100113.22;;;17.53;31.32
8523;BME280;4299;42.202;24.736;2023-02-18T09:31:16;100118.09;;;17.35;31.58
8523;BME280;4299;42.202;24.736;2023-02-18T09:33:46;100118.63;;;17.04;32.04
8523;BME280;4299;42.202;24.736;2023-02-18T09:36:14;100132.16;;;16.90;32.21
8523;BME280;4299;42.202;24.736;2023-02-18T09:38:42;100135.94;;;16.87;32.30
8523;BME280;4299;42.202;24.736;2023-02-18T09:41:15;100130.97;;;17.06;32.93
8523;BME280;4299;42.202;24.736;2023-02-18T09:43:47;100126.53;;;17.18;32.91
8523;BME280;4299;42.202;24.736;2023-02-18T09:46:16;100131.28;;;17.38;32.64
8523;BME280;4299;42.202;24.736;2023-02-18T09:48:44;100136.38;;;17.30;32.52
8523;BME280;4299;42.202;24.736;2023-02-18T09:51:12;100131.56;;;17.46;31.67
8523;BME280;4299;42.202;24.736;2023-02-18T09:53:39;100122.09;;;17.53;31.95
8523;BME280;4299;42.202;24.736;2023-02-18T09:56:11;100117.09;;;17.73;31.47
8523;BME280;4299;42.202;24.736;2023-02-18T09:58:39;100106.94;;;17.89;31.19
8523;BME280;4299;42.202;24.736;2023-02-18T10:01:14;100101.84;;;18.08;30.71
8523;BME280;4299;42.202;24.736;2023-02-18T10:03:43;100099.69;;;18.36;30.83
8523;BME280;4299;42.202;24.736;2023-02-18T10:06:15;100098.03;;;18.57;29.94
8523;BME280;4299;42.202;24.736;2023-02-18T10:08:45;100105.13;;;18.69;30.12
8523;BME280;4299;42.202;24.736;2023-02-18T10:11:16;100101.22;;;18.84;29.49
8523;BME280;4299;42.202;24.736;2023-02-18T10:13:44;100098.72;;;18.92;29.46
8523;BME280;4299;42.202;24.736;2023-02-18T10:16:16;100094.84;;;18.96;29.62
8523;BME280;4299;42.202;24.736;2023-02-18T10:18:45;100088.44;;;19.09;29.36
8523;BME280;4299;42.202;24.736;2023-02-18T10:21:15;100097.03;;;19.14;29.25
8523;BME280;4299;42.202;24.736;2023-02-18T10:23:53;100087.19;;;19.24;29.46
8523;BME280;4299;42.202;24.736;2023-02-18T10:26:24;100077.00;;;19.07;28.89
8523;BME280;4299;42.202;24.736;2023-02-18T10:28:51;100076.78;;;18.98;28.42
8523;BME280;4299;42.202;24.736;2023-02-18T10:31:22;100064.50;;;19.17;29.00
8523;BME280;4299;42.202;24.736;2023-02-18T10:33:51;100053.72;;;19.28;28.09
8523;BME280;4299;42.202;24.736;2023-02-18T10:36:22;100053.53;;;19.52;28.19
8523;BME280;4299;42.202;24.736;2023-02-18T10:39:09;100051.22;;;19.79;27.88
8523;BME280;4299;42.202;24.736;2023-02-18T10:41:46;100043.13;;;20.00;27.62
8523;BME280;4299;42.202;24.736;2023-02-18T10:44:22;100041.50;;;20.18;27.23
8523;BME280;4299;42.202;24.736;2023-02-18T10:46:59;100040.88;;;20.05;27.15
8523;BME280;4299;42.202;24.736;2023-02-18T10:49:51;100039.44;;;20.01;27.51
8523;BME280;4299;42.202;24.736;2023-02-18T10:52:21;100038.63;;;20.10;26.84
8523;BME280;4299;42.202;24.736;2023-02-18T10:54:57;100032.19;;;20.22;26.63
8523;BME280;4299;42.202;24.736;2023-02-18T10:57:26;100031.88;;;20.36;26.81
8523;BME280;4299;42.202;24.736;2023-02-18T10:59:55;100022.44;;;20.51;26.45
8523;BME280;4299;42.202;24.736;2023-02-18T11:02:24;100022.69;;;20.48;26.45
8523;BME280;4299;42.202;24.736;2023-02-18T11:04:54;100007.13;;;20.31;26.48
8523;BME280;4299;42.202;24.736;2023-02-18T11:07:24;100016.69;;;20.35;26.41
8523;BME280;4299;42.202;24.736;2023-02-18T11:09:51;100015.59;;;20.47;26.43
8523;BME280;4299;42.202;24.736;2023-02-18T11:12:19;100006.84;;;20.55;26.35
8523;BME280;4299;42.202;24.736;2023-02-18T11:14:49;100014.19;;;20.43;26.04
8523;BME280;4299;42.202;24.736;2023-02-18T11:17:29;100020.59;;;20.31;26.15
8523;BME280;4299;42.202;24.736;2023-02-18T11:19:56;100020.88;;;20.28;26.41
8523;BME280;4299;42.202;24.736;2023-02-18T11:22:24;100011.03;;;20.38;26.34
8523;BME280;4299;42.202;24.736;2023-02-18T11:24:55;100007.78;;;20.75;26.03
8523;BME280;4299;42.202;24.736;2023-02-18T11:27:25;100000.44;;;20.96;26.01
8523;BME280;4299;42.202;24.736;2023-02-18T11:29:54;100008.53;;;21.15;25.33
8523;BME280;4299;42.202;24.736;2023-02-18T11:32:24;99994.53;;;21.31;25.01
8523;BME280;4299;42.202;24.736;2023-02-18T11:34:52;99986.00;;;21.35;24.81
8523;BME280;4299;42.202;24.736;2023-02-18T11:37:19;99985.44;;;21.42;25.18
8523;BME280;4299;42.202;24.736;2023-02-18T11:39:47;99989.25;;;21.49;24.66
8523;BME280;4299;42.202;24.736;2023-02-18T11:42:15;99986.31;;;21.32;24.79
8523;BME280;4299;42.202;24.736;2023-02-18T11:44:47;99979.06;;;21.23;25.43
8523;BME280;4299;42.202;24.736;2023-02-18T11:47:20;99970.66;;;21.26;25.35
8523;BME280;4299;42.202;24.736;2023-02-18T11:49:58;99974.38;;;21.25;25.58
8523;BME280;4299;42.202;24.736;2023-02-18T11:52:25;99975.53;;;21.32;25.57
8523;BME280;4299;42.202;24.736;2023-02-18T11:54:58;99964.16;;;21.39;25.30
8523;BME280;4299;42.202;24.736;2023-02-18T11:57:25;99959.88;;;21.46;25.46
8523;BME280;4299;42.202;24.736;2023-02-18T11:59:52;99964.13;;;21.48;25.55
8523;BME280;4299;42.202;24.736;2023-02-18T12:02:29;99963.84;;;21.51;25.47
8523;BME280;4299;42.202;24.736;2023-02-18T12:05:00;99964.97;;;21.49;25.52
8523;BME280;4299;42.202;24.736;2023-02-18T12:07:28;99954.44;;;21.65;25.64
8523;BME280;4299;42.202;24.736;2023-02-18T12:09:58;99949.50;;;21.51;25.51
8523;BME280;4299;42.202;24.736;2023-02-18T12:12:26;99953.38;;;21.39;25.39
8523;BME280;4299;42.202;24.736;2023-02-18T12:14:53;99938.72;;;21.51;25.67
8523;BME280;4299;42.202;24.736;2023-02-18T12:17:25;99935.44;;;21.57;25.80
8523;BME280;4299;42.202;24.736;2023-02-18T12:20:00;99943.06;;;21.71;25.64
8523;BME280;4299;42.202;24.736;2023-02-18T12:22:30;99942.47;;;21.77;26.31
8523;BME280;4299;42.202;24.736;2023-02-18T12:25:03;99929.75;;;21.69;26.90
8523;BME280;4299;42.202;24.736;2023-02-18T12:27:36;99914.94;;;21.83;27.08
8523;BME280;4299;42.202;24.736;2023-02-18T12:30:18;99917.97;;;21.61;26.91
8523;BME280;4299;42.202;24.736;2023-02-18T12:32:53;99909.03;;;21.51;27.13
8523;BME280;4299;42.202;24.736;2023-02-18T12:35:36;99900.41;;;21.38;27.53
8523;BME280;4299;42.202;24.736;2023-02-18T12:38:22;99899.38;;;21.58;27.32
8523;BME280;4299;42.202;24.736;2023-02-18T12:41:07;99893.69;;;21.61;27.02
8523;BME280;4299;42.202;24.736;2023-02-18T12:43:46;99899.09;;;21.61;26.58
8523;BME280;4299;42.202;24.736;2023-02-18T12:46:38;99884.00;;;21.68;26.78
8523;BME280;4299;42.202;24.736;2023-02-18T12:49:28;99891.75;;;21.44;27.14
8523;BME280;4299;42.202;24.736;2023-02-18T12:52:10;99883.25;;;21.19;27.15
8523;BME280;4299;42.202;24.736;2023-02-18T12:54:50;99887.78;;;20.90;27.99
8523;BME280;4299;42.202;24.736;2023-02-18T12:57:33;99871.59;;;20.90;28.15
8523;BME280;4299;42.202;24.736;2023-02-18T13:03:19;99874.75;;;20.95;28.18
8523;BME280;4299;42.202;24.736;2023-02-18T13:06:01;99886.06;;;20.70;28.50
8523;BME280;4299;42.202;24.736;2023-02-18T13:08:40;99866.50;;;20.68;28.07
8523;BME280;4299;42.202;24.736;2023-02-18T13:11:23;99886.09;;;20.60;28.25
8523;BME280;4299;42.202;24.736;2023-02-18T13:13:59;99871.44;;;20.43;28.24
8523;BME280;4299;42.202;24.736;2023-02-18T13:16:28;99867.63;;;20.36;28.78
8523;BME280;4299;42.202;24.736;2023-02-18T13:19:00;99868.13;;;20.30;28.23
8523;BME280;4299;42.202;24.736;2023-02-18T13:21:30;99863.03;;;20.27;28.93
8523;BME280;4299;42.202;24.736;2023-02-18T13:24:00;99861.59;;;20.23;28.65
8523;BME280;4299;42.202;24.736;2023-02-18T13:26:29;99850.53;;;20.26;28.66
8523;BME280;4299;42.202;24.736;2023-02-18T13:29:15;99872.94;;;20.27;28.91
8523;BME280;4299;42.202;24.736;2023-02-18T13:31:53;99859.91;;;20.22;28.84